Almere Stad, Netherlands
Current Conditions -  °F | °C
As of 11:25 PM on Monday 24 Nov 2014 (Local Time) from EHAM Reporting Station
Few Clouds Few Clouds  
Wind Chill: 41°   Ceiling: Unl
Heat Index: 41°   Visibility: 6mi
Dew Point: 39°   Wind: 3mph
Humidity: 93%   Direction: 190°S
Pressure: 30.33"   Gusts: NA
Location:  52.37°N, 5.21°E
Report Text: EHAM 242225Z 19003KT 9999 FEW033 05/04 Q1027 NOSIG
Loading
Personal Weather Stations






























Interactive Weather Map New forecast layout! Learn more

10-Day Weather Forecast

Advertisements
Track Severe Weather on mobile